Flight Track Log - Related Links

Times and Time Zones

All times are in EDT time to prevent confusion due to time zone crossing. See the SWA2702 flight status page for this flight to view local times or setup timezone preferences in your user account.

Time Position Orientation Groundspeed Altitude Reporting Facility
EDT Latitude Longitude Course Direction KTS MPH feet Rate Location/Type
Wed 11:07:37 AM 33.6525 -117.8828 196° South 130 150 1,600  Level Los Angeles Center
Wed 11:08:39 AM 33.6144 -117.8958 196° South 140 161 3,000 2,371 Climbing Los Angeles Center
Wed 11:09:41 AM 33.5417 -117.9306 202° Southwest 247 284 6,500 4,161 Climbing Los Angeles Center
Wed 11:10:43 AM 33.4867 -117.9769 215° Southwest 248 285 11,600 4,065 Climbing Los Angeles Center
Wed 11:11:45 AM 33.4292 -118.0194 212° Southwest 241 277 14,900 3,048 Climbing Los Angeles Center
Wed 11:12:47 AM 33.3644 -118.0728 215° Southwest 269 310 17,900 3,000 Climbing Los Angeles Center
Wed 11:13:49 AM 33.3569 -118.1603 264° West 284 327 21,100 1,824 Climbing Los Angeles Center
Wed 11:14:52 AM 33.4206 -118.2458 312° West 336 387 21,700 960 Climbing Los Angeles Center
Wed 11:15:54 AM 33.4989 -118.3542 311° West 419 482 23,100 1,984 Climbing Los Angeles Center
Wed 11:16:56 AM 33.5989 -118.4928 311° West 451 519 25,800 2,661 Climbing Los Angeles Center
Wed 11:17:58 AM 33.6831 -118.6097 311° West 455 524 28,600 2,613 Climbing Los Angeles Center
Wed 11:19:00 AM 33.7658 -118.7256 311° West 453 521 31,200 2,250 Climbing Los Angeles Center
Wed 11:20:14 AM 33.8458 -118.8372 311° West 442 509 33,700 2,058 Climbing Los Angeles Center
Wed 11:21:17 AM 33.9408 -118.9700 311° West 437 503 35,900 1,104 Climbing Los Angeles Center
Wed 11:22:19 AM 34.0206 -119.0814 311° West 439 505 36,000 48 Climbing Los Angeles Center
Wed 11:23:21 AM 34.1006 -119.1931 311° West 440 506 36,000  Level Los Angeles Center
Wed 11:24:23 AM 34.1942 -119.3275 310° West 437 503 36,000  Level Los Angeles Center
Wed 11:25:25 AM 34.2739 -119.4397 311° West 439 505 36,000  Level Los Angeles Center
Wed 11:26:27 AM 34.3533 -119.5522 311° West 439 505 36,000  Level Los Angeles Center
Wed 11:27:29 AM 34.4319 -119.6639 310° West 440 506 36,000  Level Los Angeles Center
Wed 11:28:31 AM 34.4950 -119.7558 310° West 443 510 36,000  Level Los Angeles Center
Wed 11:29:33 AM 34.6111 -119.8836 318° Northwest 441 507 36,000  Level Los Angeles Center
Wed 11:30:36 AM 34.7019 -119.9811 319° Northwest 438 504 36,000  Level Los Angeles Center
Wed 11:31:38 AM 34.7906 -120.0811 317° Northwest 435 501 36,000  Level Los Angeles Center
Wed 11:32:40 AM 34.8925 -120.1900 319° Northwest 444 511 36,000  Level Los Angeles Center
Wed 11:33:42 AM 34.9822 -120.2886 318° Northwest 442 509 36,000  Level Los Angeles Center
Wed 11:34:44 AM 35.0706 -120.3867 318° Northwest 438 504 36,000  Level Los Angeles Center
Wed 11:35:46 AM 35.1592 -120.4847 318° Northwest 437 503 36,000  Level Los Angeles Center
Wed 11:37:00 AM 35.2647 -120.6044 317° Northwest 436 502 36,000  Level Los Angeles Center
Wed 11:38:03 AM 35.3722 -120.7244 318° Northwest 439 505 36,000  Level Los Angeles Center
Wed 11:38:54 AM 35.4492 -120.7931 324° Northwest 433 498 36,000  Level Oakland Center
Wed 11:39:56 AM 35.5683 -120.8983 324° Northwest 437 503 36,000  Level Oakland Center
Wed 11:40:57 AM 35.6667 -120.9867 324° Northwest 438 504 36,000  Level Oakland Center
Wed 11:41:59 AM 35.7650 -121.0736 324° Northwest 436 502 36,000  Level Oakland Center
Wed 11:43:00 AM 35.8611 -121.1606 324° Northwest 432 497 36,000  Level Oakland Center
Wed 11:44:02 AM 35.9592 -121.2478 324° Northwest 435 501 36,000  Level Oakland Center
Wed 11:45:03 AM 36.0553 -121.3347 324° Northwest 431 496 36,000  Level Oakland Center
Wed 11:46:04 AM 36.1525 -121.4200 325° Northwest 432 497 36,000 -585 Level Oakland Center
Wed 11:47:06 AM 36.2478 -121.5058 324° Northwest 427 491 34,800 -2,244 Descending Oakland Center
Wed 11:48:07 AM 36.3425 -121.5919 324° Northwest 426 490 31,400 -3,756 Descending Oakland Center
Wed 11:49:09 AM 36.4608 -121.6978 324° Northwest 442 509 27,100 -3,818 Descending Oakland Center
Wed 11:49:46 AM 36.5167 -121.7500 323° Northwest 433 498 25,100 -3,031 Descending Northern Cal TRACON
Wed 11:50:46 AM 36.6167 -121.8333 326° Northwest 414 476 22,200 -2,850 Descending Northern Cal TRACON
Wed 11:51:46 AM 36.7000 -121.9333 316° Northwest 404 465 19,400 -2,750 Descending Northern Cal TRACON
Wed 11:52:46 AM 36.8000 -121.9833 338° Northwest 387 445 16,700 -2,684 Descending Northern Cal TRACON
Wed 11:53:40 AM 36.8833 -122.0000 351° North 376 433 14,300 -2,629 Descending Northern Cal TRACON
Wed 11:54:15 AM 36.9419 -122.0150 348° North 373 429 12,800 -2,165 Descending Oakland Center
Wed 11:55:17 AM 37.0383 -122.0408 348° North 356 410 10,800 -1,366 Descending Oakland Center
Wed 11:56:18 AM 37.1225 -122.0636 348° North 311 358 10,000 -1,073 Descending Oakland Center
Wed 11:57:20 AM 37.1967 -122.0831 348° North 276 318 8,600 -1,366 Descending Oakland Center
Wed 11:58:21 AM 37.2711 -122.1019 349° North 272 313 7,200 -1,082 Descending Oakland Center
Wed 11:59:22 AM 37.3536 -122.1106 355° North 248 285 6,400 -878 Descending Oakland Center
Wed 12:00:24 PM 37.4142 -122.1078 North 223 257 5,400 -818 Descending Oakland Center
Wed 12:01:34 PM 37.4833 -122.1167 354° North 214 246 4,600 -738 Descending Northern Cal TRACON
Wed 12:02:26 PM 37.5181 -122.1456 327° Northwest 197 227 3,900 -1,000 Descending Oakland Center
Wed 12:03:28 PM 37.5475 -122.2036 303° West 195 224 2,700 -1,024 Descending Oakland Center
Wed 12:04:29 PM 37.5700 -122.2617 296° West 191 220 1,800 -927 Descending Oakland Center
Wed 12:05:31 PM 37.5894 -122.3100 297° West 173 199 800 -732 Descending Oakland Center
Wed 12:06:32 PM 37.6078 -122.3547 297° West 152 175 300 -492 Descending Oakland Center
Wed 12:08:00 PM 37.6167 -122.3667 322° Northwest  Level FlightAware Approximate
Wed 12:15:00 PM 37.6191 -122.3752 322° Northwest  Level Estimated

Login

Don't have an account? Register now (free) for customized features, flight alerts, and more!